• Join FlightAware (Why Join?)
  • Login
  • US Flag 
04:45AM EDT


 

Airport Tracker/Info


-or-


 

Live Flight TrackerFlight Track Log ✈ SWA484 ✈ 25-Apr-2013 ✈ KMCO - KBDL

Flight Track Log - Related Links

Times and Time Zones

All times are in EDT time to prevent confusion due to time zone crossing. See the SWA484 flight status page for this flight to view local times or setup timezone preferences in your user account.

Time Position Orientation Groundspeed Altitude Reporting Facility
EDT Latitude Longitude Course Direction KTS MPH feet Rate Location/Type
09:44AM 28.4167 -81.3000 156° South 158 182 700  Level Orlando TRACON
09:45AM 28.3500 -81.2667 156° South 209 241 2,800 2,640 Climbing Orlando TRACON
09:46AM 28.3333 -81.2167 111° Southeast 219 252 6,300 3,000 Climbing Orlando TRACON
09:47AM 28.3833 -81.1833 30° Northeast 263 303 8,600 2,580 Climbing Orlando TRACON
09:49AM 28.6006 -81.2492 345° North 324 373 14,900 2,700 Climbing Jacksonville Center
09:50AM 28.7011 -81.2736 348° North 355 409 18,000 2,700 Climbing Jacksonville Center
09:51AM 28.8058 -81.3050 345° North 376 433 20,400 2,400 Climbing Jacksonville Center
09:52AM 28.9147 -81.3342 347° North 390 449 22,900 2,340 Climbing Jacksonville Center
09:53AM 29.0236 -81.3728 343° North 400 460 25,100 1,500 Climbing Jacksonville Center
09:54AM 29.1389 -81.4019 348° North 410 472 26,000 1,080 Climbing Jacksonville Center
09:55AM 29.2578 -81.4072 358° North 416 479 27,300 1,500 Climbing Jacksonville Center
09:56AM 29.3769 -81.4197 355° North 428 493 29,000 1,800 Climbing Jacksonville Center
09:57AM 29.5003 -81.4347 354° North 436 502 30,900 1,860 Climbing Jacksonville Center
09:58AM 29.6214 -81.4425 357° North 436 502 32,800 1,800 Climbing Jacksonville Center
09:59AM 29.7406 -81.4525 356° North 436 502 34,500 1,560 Climbing Jacksonville Center
10:00AM 29.8514 -81.4653 354° North 441 507 36,000 1,800 Climbing Jacksonville Center
10:01AM 29.9642 -81.4756 355° North 436 502 38,100 1,500 Climbing Jacksonville Center
10:02AM 30.0772 -81.4858 356° North 415 478 39,000 420 Climbing Jacksonville Center
10:03AM 30.1878 -81.4964 355° North 402 463 39,000  Level Jacksonville Center
10:04AM 30.2986 -81.5067 355° North 402 463 39,000  Level Jacksonville Center
10:05AM 30.4133 -81.5053 North 402 463 39,000  Level Jacksonville Center
10:06AM 30.5261 -81.4964 North 402 463 39,000  Level Jacksonville Center
10:07AM 30.6367 -81.4875 North 402 463 39,000  Level Jacksonville Center
10:08AM 30.7514 -81.4786 North 402 463 39,000  Level Jacksonville Center
10:09AM 30.8619 -81.4694 North 402 463 39,000  Level Jacksonville Center
10:10AM 30.9747 -81.4631 North 402 463 39,000  Level Jacksonville Center
10:11AM 31.0894 -81.4517 North 402 463 39,000  Level Jacksonville Center
10:12AM 31.2042 -81.4425 North 402 463 39,000  Level Jacksonville Center
10:13AM 31.3186 -81.4236 North 402 463 39,000  Level Jacksonville Center
10:14AM 31.4436 -81.3853 15° North 415 478 39,000  Level Jacksonville Center
10:15AM 31.5475 -81.3592 12° North 420 483 39,000  Level Jacksonville Center
10:16AM 31.6744 -81.3253 13° North 420 483 39,000  Level Jacksonville Center
10:17AM 31.7869 -81.2967 12° North 420 483 39,000  Level Jacksonville Center
10:18AM 31.8886 -81.2433 24° Northeast 420 483 39,000  Level Jacksonville Center
10:19AM 31.9939 -81.1606 34° Northeast 438 504 39,000  Level Jacksonville Center
10:20AM 32.0969 -81.0706 36° Northeast 450 518 39,000  Level Jacksonville Center
10:21AM 32.2167 -80.9747 34° Northeast 468 539 39,000  Level Jacksonville Center
10:22AM 32.3197 -80.8867 36° Northeast 460 529 39,000  Level Jacksonville Center
10:23AM 32.4125 -80.8108 35° Northeast 460 529 39,000  Level Jacksonville Center
10:24AM 32.5175 -80.7172 37° Northeast 460 529 39,000  Level Jacksonville Center
10:25AM 32.6222 -80.6283 36° Northeast 465 535 39,000  Level Jacksonville Center
10:26AM 32.7269 -80.5367 36° Northeast 465 535 39,000  Level Jacksonville Center
10:27AM 32.8319 -80.4500 35° Northeast 465 535 39,000  Level Jacksonville Center
10:28AM 32.9367 -80.3606 36° Northeast 465 535 39,000  Level Jacksonville Center
10:29AM 33.0431 -80.2658 37° Northeast 470 541 39,000  Level Jacksonville Center
10:30AM 33.1519 -80.1733 35° Northeast 464 534 39,000  Level Jacksonville Center
10:31AM 33.2603 -80.0806 36° Northeast 475 547 39,000  Level Jacksonville Center
10:32AM 33.3647 -79.9878 37° Northeast 475 547 39,000  Level Jacksonville Center
10:33AM 33.4792 -79.8869 36° Northeast 469 540 39,000  Level Jacksonville Center
10:34AM 33.5856 -79.7936 36° Northeast 479 551 39,000  Level Jacksonville Center
10:35AM 33.6897 -79.7000 37° Northeast 473 544 39,000  Level Jacksonville Center
10:36AM 33.7978 -79.6061 36° Northeast 478 550 39,000  Level Jacksonville Center
10:37AM 33.9036 -79.5097 37° Northeast 473 544 39,000  Level Jacksonville Center
10:38AM 34.0017 -79.4283 35° Northeast 473 544 39,000  Level Jacksonville Center
10:40AM 34.1883 -79.2647 36° Northeast 465 535 39,000  Level Washington Center
10:41AM 34.3064 -79.1569 37° Northeast 474 545 39,000  Level Washington Center
10:42AM 34.4136 -79.0608 36° Northeast 474 545 39,000  Level Washington Center
10:43AM 34.5142 -78.9744 35° Northeast 474 545 39,000  Level Washington Center
10:44AM 34.6322 -78.8606 38° Northeast 480 552 39,000  Level Washington Center
10:45AM 34.7411 -78.7639 36° Northeast 485 558 39,000  Level Washington Center
10:46AM 34.8481 -78.6644 37° Northeast 485 558 39,000  Level Washington Center
10:47AM 34.9547 -78.5669 37° Northeast 485 558 39,000  Level Washington Center
10:48AM 35.0636 -78.4697 36° Northeast 485 558 39,000  Level Washington Center
10:49AM 35.1575 -78.3789 38° Northeast 485 558 39,000  Level Washington Center
10:50AM 35.2664 -78.2783 37° Northeast 485 558 39,000  Level Washington Center
10:51AM 35.3750 -78.1803 36° Northeast 490 564 39,000  Level Washington Center
10:52AM 35.4875 -78.0869 34° Northeast 490 564 39,000  Level Washington Center
10:53AM 35.6019 -77.9983 32° Northeast 484 557 39,000  Level Washington Center
10:54AM 35.7164 -77.9097 32° Northeast 484 557 39,000  Level Washington Center
10:55AM 35.8328 -77.8208 32° Northeast 490 564 39,000  Level Washington Center
10:56AM 35.9472 -77.7319 32° Northeast 490 564 39,000  Level Washington Center
10:57AM 36.0594 -77.6294 36° Northeast 490 564 39,000  Level Washington Center
10:58AM 36.1697 -77.5269 37° Northeast 490 564 39,000  Level Washington Center
10:59AM 36.2756 -77.4239 38° Northeast 490 564 39,000  Level Washington Center
11:00AM 36.3856 -77.3233 36° Northeast 490 564 39,000  Level Washington Center
11:01AM 36.4978 -77.2172 37° Northeast 495 570 39,000  Level Washington Center
11:02AM 36.6075 -77.1158 37° Northeast 495 570 39,000  Level Washington Center
11:03AM 36.7172 -77.0092 38° Northeast 495 570 39,000  Level Washington Center
11:04AM 36.8289 -76.9075 36° Northeast 495 570 39,000  Level Washington Center
11:05AM 36.9533 -76.7953 36° Northeast 500 575 39,000  Level Washington Center
11:06AM 37.0669 -76.6903 36° Northeast 500 575 39,000  Level Washington Center
11:07AM 37.1803 -76.5903 35° Northeast 506 582 39,000  Level Washington Center
11:08AM 37.2961 -76.4847 36° Northeast 506 582 39,000  Level Washington Center
11:09AM 37.4094 -76.3814 36° Northeast 506 582 39,000  Level Washington Center
11:10AM 37.5225 -76.2778 36° Northeast 506 582 39,000  Level Washington Center
11:11AM 37.6378 -76.1714 36° Northeast 506 582 39,000  Level Washington Center
11:12AM 37.7531 -76.0725 34° Northeast 506 582 39,000  Level Washington Center
11:13AM 37.8639 -75.9625 38° Northeast 501 577 39,000  Level Washington Center
11:14AM 37.9664 -75.8658 37° Northeast 510 587 39,000  Level Washington Center
11:15AM 38.0792 -75.7581 37° Northeast 505 581 39,000  Level Washington Center
11:16AM 38.1919 -75.6500 37° Northeast 505 581 39,000  Level Washington Center
11:17AM 38.3211 -75.5336 35° Northeast 510 587 39,000  Level Washington Center
11:18AM 38.4483 -75.4725 21° North 483 556 39,000  Level Washington Center
11:19AM 38.5794 -75.4139 19° North 488 562 39,000  Level Washington Center
11:20AM 38.7108 -75.3628 17° North 488 562 39,000  Level Washington Center
11:21AM 38.8400 -75.3039 20° North 488 562 39,000  Level Washington Center
11:22AM 38.9711 -75.2500 18° North 488 562 39,000  Level Washington Center
11:23AM 39.1044 -75.1958 17° North 488 562 39,000  Level Washington Center
11:24AM 39.2397 -75.1467 16° North 494 568 39,000 -120 Level Washington Center
11:25AM 39.3600 -75.0439 33° Northeast 504 580 38,800 -600 Descending Washington Center
11:26AM 39.4719 -74.9114 42° Northeast 513 590 37,800 -960 Descending Washington Center
11:27AM 39.5775 -74.7839 43° Northeast 519 597 36,900 -900 Descending Washington Center
11:29AM 39.8083 -74.5108 42° Northeast 529 609 34,900 -960 Descending New York Center
11:30AM 39.9339 -74.3633 42° Northeast 536 617 33,900 -1,560 Descending New York Center
11:31AM 40.0422 -74.2253 44° Northeast 536 617 31,900 -2,580 Descending New York Center
11:32AM 40.1544 -74.0922 42° Northeast 536 617 28,800 -2,880 Descending New York Center
11:33AM 40.2622 -73.9586 43° Northeast 536 617 26,100 -1,740 Descending New York Center
11:36AM 40.4994 -73.6600 44° Northeast 507 583 23,000 -1,260 Descending Boston Center
11:37AM 40.6008 -73.5361 43° Northeast 502 578 22,000 -1,020 Descending Boston Center
11:38AM 40.7019 -73.4147 42° Northeast 491 565 21,000 -1,500 Descending Boston Center
11:39AM 40.8008 -73.2956 42° Northeast 485 558 19,000 -1,020 Descending Boston Center
11:40AM 40.9017 -73.1789 41° Northeast 473 544 19,000 -120 Level Boston Center
11:41AM 41.0044 -73.0644 40° Northeast 473 544 18,800 -1,260 Descending Boston Center
11:42AM 41.1008 -72.9469 43° Northeast 473 544 16,500 -2,520 Descending Boston Center
11:42AM 41.1533 -72.8867 41° Northeast 469 540 15,200 -2,700 Descending Boston Center
11:43AM 41.1950 -72.8344 43° Northeast 467 537 13,800 -2,700 Descending Boston Center
11:43AM 41.2453 -72.7742 42° Northeast 450 518 12,500 -2,400 Descending Boston Center
11:44AM 41.2872 -72.7356 35° Northeast 443 510 11,400 -1,500 Descending Boston Center
11:44AM 41.3372 -72.6889 35° Northeast 412 474 11,000 -840 Descending Boston Center
11:45AM 41.3936 -72.6642 18° North 391 450 10,600 -720 Descending Boston Center
11:45AM 41.4311 -72.6478 18° North 346 398 10,300 -900 Descending Boston Center
11:46AM 41.5250 -72.6119 16° North 305 351 9,200 -1,500 Descending Boston Center
11:47AM 41.5981 -72.5844 16° North 278 320 7,200 -1,800 Descending Boston Center
11:48AM 41.6542 -72.5650 15° North 257 296 5,800 -1,740 Descending Boston Center
11:49AM 41.7208 -72.5403 15° North 229 264 3,900 -1,680 Descending Boston Center
11:50AM 41.7814 -72.5153 17° North 228 262 2,500 -720 Descending Boston Center
11:51AM 41.8272 -72.5431 336° Northwest 200 230 2,500 -240 Level Boston Center
11:52AM 41.8583 -72.5906 311° West 169 194 2,100 -600 Descending Boston Center
11:53AM 41.8897 -72.6297 317° Northwest 159 183 1,300 -840 Descending Boston Center
11:54AM 41.9147 -72.6661 313° West 134 154 500 -840 Descending Boston Center
11:56AM 41.9333 -72.6833 45° Northeast  Level FlightAware Approximate